sensor_id;sensor_type;location;lat;lon;timestamp;P1;durP1;ratioP1;P2;durP2;ratioP2
22995;SDS011;11664;49.774;8.650;2022-07-30T00:01:36;15.93;;;15.13;;
22995;SDS011;11664;49.774;8.650;2022-07-30T00:04:02;10.27;;;9.75;;
22995;SDS011;11664;49.774;8.650;2022-07-30T00:06:28;7.82;;;7.43;;
22995;SDS011;11664;49.774;8.650;2022-07-30T00:08:54;8.07;;;7.68;;
22995;SDS011;11664;49.774;8.650;2022-07-30T00:11:20;9.82;;;9.20;;
22995;SDS011;11664;49.774;8.650;2022-07-30T00:13:46;11.57;;;11.02;;
22995;SDS011;11664;49.774;8.650;2022-07-30T00:16:12;15.20;;;14.43;;
22995;SDS011;11664;49.774;8.650;2022-07-30T00:18:38;14.18;;;13.48;;
22995;SDS011;11664;49.774;8.650;2022-07-30T00:21:05;11.88;;;11.27;;
22995;SDS011;11664;49.774;8.650;2022-07-30T00:23:31;14.38;;;13.52;;
22995;SDS011;11664;49.774;8.650;2022-07-30T00:25:57;11.93;;;11.32;;
22995;SDS011;11664;49.774;8.650;2022-07-30T00:28:23;14.55;;;13.77;;
22995;SDS011;11664;49.774;8.650;2022-07-30T00:30:49;18.90;;;17.85;;
22995;SDS011;11664;49.774;8.650;2022-07-30T00:33:15;29.58;;;28.08;;
22995;SDS011;11664;49.774;8.650;2022-07-30T00:35:41;33.05;;;31.45;;
22995;SDS011;11664;49.774;8.650;2022-07-30T00:38:09;18.23;;;17.20;;
22995;SDS011;11664;49.774;8.650;2022-07-30T00:40:35;17.05;;;16.15;;
22995;SDS011;11664;49.774;8.650;2022-07-30T00:43:01;25.45;;;24.15;;
22995;SDS011;11664;49.774;8.650;2022-07-30T00:45:27;21.38;;;20.27;;
22995;SDS011;11664;49.774;8.650;2022-07-30T00:47:54;35.25;;;33.45;;
22995;SDS011;11664;49.774;8.650;2022-07-30T00:50:20;27.02;;;25.65;;
22995;SDS011;11664;49.774;8.650;2022-07-30T00:52:47;20.40;;;19.30;;
22995;SDS011;11664;49.774;8.650;2022-07-30T00:55:13;19.13;;;18.13;;
22995;SDS011;11664;49.774;8.650;2022-07-30T00:57:39;22.60;;;21.30;;
22995;SDS011;11664;49.774;8.650;2022-07-30T01:00:07;30.02;;;28.50;;
22995;SDS011;11664;49.774;8.650;2022-07-30T01:02:33;31.98;;;30.38;;
22995;SDS011;11664;49.774;8.650;2022-07-30T01:04:59;35.75;;;33.90;;
22995;SDS011;11664;49.774;8.650;2022-07-30T01:07:25;35.63;;;33.72;;
22995;SDS011;11664;49.774;8.650;2022-07-30T01:09:51;57.30;;;54.25;;
22995;SDS011;11664;49.774;8.650;2022-07-30T01:12:18;61.60;;;58.40;;
22995;SDS011;11664;49.774;8.650;2022-07-30T01:14:45;49.28;;;46.83;;
22995;SDS011;11664;49.774;8.650;2022-07-30T01:17:13;28.38;;;26.60;;
22995;SDS011;11664;49.774;8.650;2022-07-30T01:19:39;16.88;;;15.38;;
22995;SDS011;11664;49.774;8.650;2022-07-30T01:27:26;14.27;;;13.57;;
22995;SDS011;11664;49.774;8.650;2022-07-30T01:29:53;18.40;;;17.40;;
22995;SDS011;11664;49.774;8.650;2022-07-30T01:32:20;20.73;;;19.70;;
22995;SDS011;11664;49.774;8.650;2022-07-30T01:34:47;22.70;;;21.55;;
22995;SDS011;11664;49.774;8.650;2022-07-30T01:37:14;29.70;;;28.15;;
22995;SDS011;11664;49.774;8.650;2022-07-30T01:39:41;31.67;;;30.10;;
22995;SDS011;11664;49.774;8.650;2022-07-30T01:42:08;26.15;;;24.77;;
22995;SDS011;11664;49.774;8.650;2022-07-30T01:44:36;17.17;;;16.27;;
22995;SDS011;11664;49.774;8.650;2022-07-30T01:47:02;13.98;;;13.27;;
22995;SDS011;11664;49.774;8.650;2022-07-30T01:49:29;12.00;;;11.30;;
22995;SDS011;11664;49.774;8.650;2022-07-30T01:51:56;12.45;;;11.85;;
22995;SDS011;11664;49.774;8.650;2022-07-30T01:54:23;16.15;;;14.95;;
22995;SDS011;11664;49.774;8.650;2022-07-30T01:56:50;16.85;;;15.85;;
22995;SDS011;11664;49.774;8.650;2022-07-30T01:59:19;16.80;;;15.95;;
22995;SDS011;11664;49.774;8.650;2022-07-30T02:01:45;19.50;;;18.50;;
22995;SDS011;11664;49.774;8.650;2022-07-30T02:04:11;28.20;;;26.70;;
22995;SDS011;11664;49.774;8.650;2022-07-30T02:06:40;44.70;;;42.40;;
22995;SDS011;11664;49.774;8.650;2022-07-30T02:09:07;51.13;;;48.58;;
22995;SDS011;11664;49.774;8.650;2022-07-30T02:11:35;38.90;;;36.97;;
22995;SDS011;11664;49.774;8.650;2022-07-30T02:14:23;27.65;;;26.25;;
22995;SDS011;11664;49.774;8.650;2022-07-30T02:16:50;24.17;;;22.98;;
22995;SDS011;11664;49.774;8.650;2022-07-30T02:19:17;22.95;;;21.83;;
22995;SDS011;11664;49.774;8.650;2022-07-30T02:21:46;23.38;;;22.23;;
22995;SDS011;11664;49.774;8.650;2022-07-30T02:24:13;24.55;;;23.27;;
22995;SDS011;11664;49.774;8.650;2022-07-30T02:26:40;23.98;;;22.75;;
22995;SDS011;11664;49.774;8.650;2022-07-30T02:29:08;36.35;;;34.53;;
22995;SDS011;11664;49.774;8.650;2022-07-30T02:31:35;29.02;;;27.42;;
22995;SDS011;11664;49.774;8.650;2022-07-30T02:34:02;27.50;;;26.05;;
22995;SDS011;11664;49.774;8.650;2022-07-30T02:36:28;29.80;;;28.27;;
22995;SDS011;11664;49.774;8.650;2022-07-30T02:38:55;22.58;;;21.45;;
22995;SDS011;11664;49.774;8.650;2022-07-30T02:41:22;15.50;;;14.70;;
22995;SDS011;11664;49.774;8.650;2022-07-30T02:43:50;14.20;;;13.45;;
22995;SDS011;11664;49.774;8.650;2022-07-30T02:46:17;10.85;;;10.32;;
22995;SDS011;11664;49.774;8.650;2022-07-30T02:48:44;18.85;;;17.88;;
22995;SDS011;11664;49.774;8.650;2022-07-30T02:51:11;17.50;;;16.40;;
22995;SDS011;11664;49.774;8.650;2022-07-30T02:53:45;15.38;;;14.65;;
22995;SDS011;11664;49.774;8.650;2022-07-30T02:56:11;21.08;;;20.00;;
22995;SDS011;11664;49.774;8.650;2022-07-30T02:58:40;19.13;;;18.13;;
22995;SDS011;11664;49.774;8.650;2022-07-30T03:01:06;16.15;;;15.27;;
22995;SDS011;11664;49.774;8.650;2022-07-30T03:03:34;17.55;;;16.67;;
22995;SDS011;11664;49.774;8.650;2022-07-30T03:06:00;28.08;;;26.63;;
22995;SDS011;11664;49.774;8.650;2022-07-30T03:08:26;20.70;;;19.60;;
22995;SDS011;11664;49.774;8.650;2022-07-30T03:10:54;17.08;;;16.17;;
22995;SDS011;11664;49.774;8.650;2022-07-30T03:13:20;11.95;;;11.25;;
22995;SDS011;11664;49.774;8.650;2022-07-30T03:15:49;15.75;;;14.95;;
22995;SDS011;11664;49.774;8.650;2022-07-30T03:18:16;10.88;;;10.27;;
22995;SDS011;11664;49.774;8.650;2022-07-30T03:20:43;12.80;;;12.18;;
22995;SDS011;11664;49.774;8.650;2022-07-30T03:23:10;23.63;;;22.42;;
22995;SDS011;11664;49.774;8.650;2022-07-30T03:25:37;26.55;;;25.23;;
22995;SDS011;11664;49.774;8.650;2022-07-30T03:28:04;22.13;;;20.95;;
22995;SDS011;11664;49.774;8.650;2022-07-30T03:30:32;21.83;;;20.67;;
22995;SDS011;11664;49.774;8.650;2022-07-30T03:32:58;22.50;;;21.08;;
22995;SDS011;11664;49.774;8.650;2022-07-30T03:35:24;18.77;;;17.80;;
22995;SDS011;11664;49.774;8.650;2022-07-30T03:37:51;23.38;;;22.05;;
22995;SDS011;11664;49.774;8.650;2022-07-30T03:40:18;25.80;;;24.45;;
22995;SDS011;11664;49.774;8.650;2022-07-30T03:42:44;24.48;;;23.23;;
22995;SDS011;11664;49.774;8.650;2022-07-30T03:45:11;13.23;;;12.52;;
22995;SDS011;11664;49.774;8.650;2022-07-30T03:47:38;15.73;;;14.75;;
22995;SDS011;11664;49.774;8.650;2022-07-30T03:50:06;12.00;;;11.32;;
22995;SDS011;11664;49.774;8.650;2022-07-30T03:52:33;14.82;;;14.05;;
22995;SDS011;11664;49.774;8.650;2022-07-30T03:54:59;14.98;;;14.15;;
22995;SDS011;11664;49.774;8.650;2022-07-30T03:57:26;11.02;;;10.48;;
22995;SDS011;11664;49.774;8.650;2022-07-30T03:59:52;12.52;;;11.75;;
22995;SDS011;11664;49.774;8.650;2022-07-30T04:02:18;65.88;;;62.30;;
22995;SDS011;11664;49.774;8.650;2022-07-30T04:04:45;29.42;;;27.88;;
22995;SDS011;11664;49.774;8.650;2022-07-30T04:07:11;34.28;;;32.50;;
22995;SDS011;11664;49.774;8.650;2022-07-30T04:09:37;49.50;;;46.95;;
22995;SDS011;11664;49.774;8.650;2022-07-30T04:12:03;27.98;;;26.25;;
22995;SDS011;11664;49.774;8.650;2022-07-30T04:14:42;12.10;;;11.45;;
22995;SDS011;11664;49.774;8.650;2022-07-30T04:17:23;16.83;;;15.93;;
22995;SDS011;11664;49.774;8.650;2022-07-30T04:19:51;26.52;;;25.17;;
22995;SDS011;11664;49.774;8.650;2022-07-30T04:22:19;22.48;;;21.25;;
22995;SDS011;11664;49.774;8.650;2022-07-30T04:24:46;17.23;;;16.38;;
22995;SDS011;11664;49.774;8.650;2022-07-30T04:27:13;17.60;;;16.73;;
22995;SDS011;11664;49.774;8.650;2022-07-30T04:29:39;12.40;;;11.75;;
22995;SDS011;11664;49.774;8.650;2022-07-30T04:32:06;12.95;;;12.15;;
22995;SDS011;11664;49.774;8.650;2022-07-30T04:34:33;14.18;;;13.40;;
22995;SDS011;11664;49.774;8.650;2022-07-30T04:36:59;17.30;;;16.30;;
22995;SDS011;11664;49.774;8.650;2022-07-30T04:39:25;6.82;;;6.43;;
22995;SDS011;11664;49.774;8.650;2022-07-30T04:41:51;8.02;;;7.60;;
22995;SDS011;11664;49.774;8.650;2022-07-30T04:44:18;7.05;;;6.50;;
22995;SDS011;11664;49.774;8.650;2022-07-30T04:46:44;6.38;;;6.05;;
22995;SDS011;11664;49.774;8.650;2022-07-30T04:49:10;6.07;;;5.75;;
22995;SDS011;11664;49.774;8.650;2022-07-30T04:51:37;6.78;;;6.38;;
22995;SDS011;11664;49.774;8.650;2022-07-30T04:54:04;7.50;;;7.05;;
22995;SDS011;11664;49.774;8.650;2022-07-30T04:56:31;12.30;;;11.70;;
22995;SDS011;11664;49.774;8.650;2022-07-30T04:58:58;33.45;;;31.70;;
22995;SDS011;11664;49.774;8.650;2022-07-30T05:01:26;18.40;;;17.42;;
22995;SDS011;11664;49.774;8.650;2022-07-30T05:03:54;29.35;;;27.70;;
22995;SDS011;11664;49.774;8.650;2022-07-30T05:06:20;32.40;;;30.77;;
22995;SDS011;11664;49.774;8.650;2022-07-30T05:08:47;16.58;;;15.77;;
22995;SDS011;11664;49.774;8.650;2022-07-30T05:11:13;15.73;;;14.93;;
22995;SDS011;11664;49.774;8.650;2022-07-30T05:13:40;23.85;;;22.60;;
22995;SDS011;11664;49.774;8.650;2022-07-30T05:16:06;18.42;;;17.52;;
22995;SDS011;11664;49.774;8.650;2022-07-30T05:18:33;17.85;;;16.95;;
22995;SDS011;11664;49.774;8.650;2022-07-30T05:20:59;21.67;;;20.55;;
22995;SDS011;11664;49.774;8.650;2022-07-30T05:23:25;40.53;;;38.47;;
22995;SDS011;11664;49.774;8.650;2022-07-30T05:25:51;26.40;;;24.85;;
22995;SDS011;11664;49.774;8.650;2022-07-30T05:28:17;61.58;;;58.47;;
22995;SDS011;11664;49.774;8.650;2022-07-30T05:30:43;60.50;;;57.45;;
22995;SDS011;11664;49.774;8.650;2022-07-30T05:33:09;32.60;;;30.88;;
22995;SDS011;11664;49.774;8.650;2022-07-30T05:35:35;7.00;;;6.60;;
22995;SDS011;11664;49.774;8.650;2022-07-30T05:38:01;37.75;;;35.80;;
22995;SDS011;11664;49.774;8.650;2022-07-30T05:40:26;8.10;;;7.68;;
22995;SDS011;11664;49.774;8.650;2022-07-30T05:42:53;39.78;;;37.78;;
22995;SDS011;11664;49.774;8.650;2022-07-30T05:45:19;13.93;;;13.15;;
22995;SDS011;11664;49.774;8.650;2022-07-30T05:47:45;9.52;;;8.93;;
22995;SDS011;11664;49.774;8.650;2022-07-30T05:50:11;14.05;;;13.38;;
22995;SDS011;11664;49.774;8.650;2022-07-30T05:52:37;8.60;;;8.10;;
22995;SDS011;11664;49.774;8.650;2022-07-30T05:55:03;50.33;;;47.72;;
22995;SDS011;11664;49.774;8.650;2022-07-30T05:57:29;33.97;;;32.22;;
22995;SDS011;11664;49.774;8.650;2022-07-30T05:59:55;20.90;;;19.90;;
22995;SDS011;11664;49.774;8.650;2022-07-30T06:02:21;8.75;;;8.05;;
22995;SDS011;11664;49.774;8.650;2022-07-30T06:04:47;6.35;;;5.85;;
22995;SDS011;11664;49.774;8.650;2022-07-30T06:07:13;14.32;;;13.63;;
22995;SDS011;11664;49.774;8.650;2022-07-30T06:09:39;6.53;;;6.22;;
22995;SDS011;11664;49.774;8.650;2022-07-30T06:12:05;8.27;;;7.78;;
22995;SDS011;11664;49.774;8.650;2022-07-30T06:14:31;10.85;;;10.13;;
22995;SDS011;11664;49.774;8.650;2022-07-30T06:16:57;9.57;;;9.07;;
22995;SDS011;11664;49.774;8.650;2022-07-30T06:19:23;10.30;;;9.77;;
22995;SDS011;11664;49.774;8.650;2022-07-30T06:21:50;15.05;;;14.27;;
22995;SDS011;11664;49.774;8.650;2022-07-30T06:24:16;17.15;;;16.20;;
22995;SDS011;11664;49.774;8.650;2022-07-30T06:26:42;6.90;;;5.38;;
22995;SDS011;11664;49.774;8.650;2022-07-30T06:29:08;8.85;;;8.35;;
22995;SDS011;11664;49.774;8.650;2022-07-30T06:31:34;4.13;;;3.83;;
22995;SDS011;11664;49.774;8.650;2022-07-30T06:34:02;6.35;;;5.90;;
22995;SDS011;11664;49.774;8.650;2022-07-30T06:36:28;5.43;;;5.18;;
22995;SDS011;11664;49.774;8.650;2022-07-30T06:38:54;5.63;;;5.30;;
22995;SDS011;11664;49.774;8.650;2022-07-30T06:41:20;6.65;;;6.35;;
22995;SDS011;11664;49.774;8.650;2022-07-30T06:43:46;8.30;;;7.85;;
22995;SDS011;11664;49.774;8.650;2022-07-30T06:46:15;8.40;;;8.00;;
22995;SDS011;11664;49.774;8.650;2022-07-30T06:48:42;4.88;;;4.68;;
22995;SDS011;11664;49.774;8.650;2022-07-30T06:51:07;4.70;;;4.45;;
22995;SDS011;11664;49.774;8.650;2022-07-30T06:53:33;7.10;;;6.65;;
22995;SDS011;11664;49.774;8.650;2022-07-30T06:55:59;6.47;;;6.07;;
22995;SDS011;11664;49.774;8.650;2022-07-30T06:58:26;7.10;;;6.55;;
22995;SDS011;11664;49.774;8.650;2022-07-30T07:00:52;6.45;;;5.93;;
22995;SDS011;11664;49.774;8.650;2022-07-30T07:03:18;10.02;;;5.88;;
22995;SDS011;11664;49.774;8.650;2022-07-30T07:05:44;8.15;;;7.55;;
22995;SDS011;11664;49.774;8.650;2022-07-30T07:08:10;6.07;;;5.78;;
22995;SDS011;11664;49.774;8.650;2022-07-30T07:10:36;7.57;;;7.07;;
22995;SDS011;11664;49.774;8.650;2022-07-30T07:13:02;5.90;;;5.68;;
22995;SDS011;11664;49.774;8.650;2022-07-30T07:15:28;5.70;;;5.35;;
22995;SDS011;11664;49.774;8.650;2022-07-30T07:17:54;5.18;;;4.93;;
22995;SDS011;11664;49.774;8.650;2022-07-30T07:20:20;6.95;;;6.53;;
22995;SDS011;11664;49.774;8.650;2022-07-30T07:22:46;7.22;;;6.68;;
22995;SDS011;11664;49.774;8.650;2022-07-30T07:25:12;10.18;;;9.52;;
22995;SDS011;11664;49.774;8.650;2022-07-30T07:27:38;10.30;;;9.70;;
22995;SDS011;11664;49.774;8.650;2022-07-30T07:30:04;14.50;;;13.63;;
22995;SDS011;11664;49.774;8.650;2022-07-30T07:32:31;14.02;;;13.23;;
22995;SDS011;11664;49.774;8.650;2022-07-30T07:34:57;13.68;;;12.98;;
22995;SDS011;11664;49.774;8.650;2022-07-30T07:37:22;12.85;;;12.15;;
22995;SDS011;11664;49.774;8.650;2022-07-30T07:39:48;10.57;;;9.75;;
22995;SDS011;11664;49.774;8.650;2022-07-30T07:42:14;7.40;;;7.00;;
22995;SDS011;11664;49.774;8.650;2022-07-30T07:44:40;7.22;;;6.75;;
22995;SDS011;11664;49.774;8.650;2022-07-30T07:47:06;13.30;;;12.43;;
22995;SDS011;11664;49.774;8.650;2022-07-30T07:49:32;11.10;;;10.40;;
22995;SDS011;11664;49.774;8.650;2022-07-30T07:51:58;8.27;;;7.60;;
22995;SDS011;11664;49.774;8.650;2022-07-30T07:54:24;11.23;;;10.45;;
22995;SDS011;11664;49.774;8.650;2022-07-30T07:56:50;14.02;;;13.25;;
22995;SDS011;11664;49.774;8.650;2022-07-30T07:59:19;14.70;;;13.90;;
22995;SDS011;11664;49.774;8.650;2022-07-30T08:01:45;8.50;;;7.95;;
22995;SDS011;11664;49.774;8.650;2022-07-30T08:04:11;9.00;;;8.52;;
22995;SDS011;11664;49.774;8.650;2022-07-30T08:06:37;18.38;;;17.35;;
22995;SDS011;11664;49.774;8.650;2022-07-30T08:09:03;15.55;;;14.43;;
22995;SDS011;11664;49.774;8.650;2022-07-30T08:11:29;11.77;;;11.18;;
22995;SDS011;11664;49.774;8.650;2022-07-30T08:13:55;9.60;;;9.10;;
22995;SDS011;11664;49.774;8.650;2022-07-30T08:16:21;8.23;;;7.78;;
22995;SDS011;11664;49.774;8.650;2022-07-30T08:18:48;7.72;;;7.22;;
22995;SDS011;11664;49.774;8.650;2022-07-30T08:21:14;6.93;;;6.40;;
22995;SDS011;11664;49.774;8.650;2022-07-30T08:23:40;7.45;;;6.95;;
22995;SDS011;11664;49.774;8.650;2022-07-30T08:26:06;8.00;;;7.40;;
22995;SDS011;11664;49.774;8.650;2022-07-30T08:28:32;9.63;;;9.10;;
22995;SDS011;11664;49.774;8.650;2022-07-30T08:31:00;9.50;;;8.98;;
22995;SDS011;11664;49.774;8.650;2022-07-30T08:33:26;5.00;;;4.72;;
22995;SDS011;11664;49.774;8.650;2022-07-30T08:35:52;4.93;;;4.63;;
22995;SDS011;11664;49.774;8.650;2022-07-30T08:38:18;4.72;;;4.43;;
22995;SDS011;11664;49.774;8.650;2022-07-30T08:40:44;4.22;;;4.03;;
22995;SDS011;11664;49.774;8.650;2022-07-30T08:43:10;4.93;;;4.45;;
22995;SDS011;11664;49.774;8.650;2022-07-30T08:45:36;4.35;;;4.05;;
22995;SDS011;11664;49.774;8.650;2022-07-30T08:48:06;5.10;;;4.80;;
22995;SDS011;11664;49.774;8.650;2022-07-30T08:50:32;4.50;;;4.20;;
22995;SDS011;11664;49.774;8.650;2022-07-30T08:52:59;4.25;;;3.95;;
22995;SDS011;11664;49.774;8.650;2022-07-30T08:55:26;6.00;;;5.57;;
22995;SDS011;11664;49.774;8.650;2022-07-30T08:57:52;6.10;;;5.70;;
22995;SDS011;11664;49.774;8.650;2022-07-30T09:00:19;5.55;;;5.25;;
22995;SDS011;11664;49.774;8.650;2022-07-30T09:02:45;7.18;;;6.78;;
22995;SDS011;11664;49.774;8.650;2022-07-30T09:05:11;5.88;;;5.47;;
22995;SDS011;11664;49.774;8.650;2022-07-30T09:07:38;7.78;;;7.18;;
22995;SDS011;11664;49.774;8.650;2022-07-30T09:10:05;7.05;;;6.65;;
22995;SDS011;11664;49.774;8.650;2022-07-30T09:12:38;8.00;;;7.40;;
22995;SDS011;11664;49.774;8.650;2022-07-30T09:15:12;7.78;;;7.13;;
22995;SDS011;11664;49.774;8.650;2022-07-30T09:20:11;9.88;;;8.25;;
22995;SDS011;11664;49.774;8.650;2022-07-30T09:22:41;10.85;;;10.30;;
22995;SDS011;11664;49.774;8.650;2022-07-30T09:25:07;16.10;;;15.13;;
22995;SDS011;11664;49.774;8.650;2022-07-30T09:27:46;10.85;;;10.25;;
22995;SDS011;11664;49.774;8.650;2022-07-30T09:30:13;6.93;;;6.53;;
22995;SDS011;11664;49.774;8.650;2022-07-30T09:32:49;6.80;;;6.20;;
22995;SDS011;11664;49.774;8.650;2022-07-30T09:35:16;6.10;;;5.75;;
22995;SDS011;11664;49.774;8.650;2022-07-30T09:37:42;6.05;;;5.68;;
22995;SDS011;11664;49.774;8.650;2022-07-30T09:40:13;5.05;;;4.75;;
22995;SDS011;11664;49.774;8.650;2022-07-30T09:42:40;5.10;;;4.80;;
22995;SDS011;11664;49.774;8.650;2022-07-30T09:45:07;6.88;;;5.30;;
22995;SDS011;11664;49.774;8.650;2022-07-30T09:47:34;6.38;;;6.00;;
22995;SDS011;11664;49.774;8.650;2022-07-30T09:50:01;9.23;;;5.38;;
22995;SDS011;11664;49.774;8.650;2022-07-30T09:52:28;4.15;;;3.95;;
22995;SDS011;11664;49.774;8.650;2022-07-30T09:54:54;6.07;;;5.78;;
22995;SDS011;11664;49.774;8.650;2022-07-30T09:57:20;5.97;;;5.60;;
22995;SDS011;11664;49.774;8.650;2022-07-30T09:59:46;5.85;;;5.15;;
22995;SDS011;11664;49.774;8.650;2022-07-30T10:02:12;6.63;;;5.68;;
22995;SDS011;11664;49.774;8.650;2022-07-30T10:04:38;4.90;;;4.70;;
22995;SDS011;11664;49.774;8.650;2022-07-30T10:07:04;5.60;;;5.30;;
22995;SDS011;11664;49.774;8.650;2022-07-30T10:09:32;8.43;;;7.45;;
22995;SDS011;11664;49.774;8.650;2022-07-30T10:11:59;10.15;;;9.55;;
22995;SDS011;11664;49.774;8.650;2022-07-30T10:14:30;6.63;;;6.22;;
22995;SDS011;11664;49.774;8.650;2022-07-30T10:16:57;8.23;;;7.82;;
22995;SDS011;11664;49.774;8.650;2022-07-30T10:19:24;5.53;;;5.22;;
22995;SDS011;11664;49.774;8.650;2022-07-30T10:21:50;4.10;;;3.90;;
22995;SDS011;11664;49.774;8.650;2022-07-30T10:24:17;4.43;;;4.15;;
22995;SDS011;11664;49.774;8.650;2022-07-30T10:26:46;3.78;;;3.58;;
22995;SDS011;11664;49.774;8.650;2022-07-30T10:29:14;4.40;;;4.10;;
22995;SDS011;11664;49.774;8.650;2022-07-30T10:31:41;3.20;;;3.00;;
22995;SDS011;11664;49.774;8.650;2022-07-30T10:34:08;3.63;;;3.42;;
22995;SDS011;11664;49.774;8.650;2022-07-30T10:36:39;3.50;;;3.25;;
22995;SDS011;11664;49.774;8.650;2022-07-30T10:39:06;3.53;;;3.22;;
22995;SDS011;11664;49.774;8.650;2022-07-30T10:44:31;3.55;;;3.30;;
22995;SDS011;11664;49.774;8.650;2022-07-30T10:47:13;2.47;;;2.38;;
22995;SDS011;11664;49.774;8.650;2022-07-30T10:49:48;3.00;;;2.90;;
22995;SDS011;11664;49.774;8.650;2022-07-30T10:55:20;3.30;;;3.10;;
22995;SDS011;11664;49.774;8.650;2022-07-30T10:58:00;3.95;;;3.65;;
22995;SDS011;11664;49.774;8.650;2022-07-30T11:00:27;3.60;;;3.40;;
22995;SDS011;11664;49.774;8.650;2022-07-30T11:05:38;3.63;;;3.42;;
22995;SDS011;11664;49.774;8.650;2022-07-30T11:10:50;3.58;;;3.45;;
22995;SDS011;11664;49.774;8.650;2022-07-30T11:13:15;3.75;;;3.55;;
22995;SDS011;11664;49.774;8.650;2022-07-30T11:15:57;3.22;;;3.13;;
22995;SDS011;11664;49.774;8.650;2022-07-30T11:18:24;5.05;;;4.60;;
22995;SDS011;11664;49.774;8.650;2022-07-30T11:23:36;4.30;;;4.00;;
22995;SDS011;11664;49.774;8.650;2022-07-30T11:26:02;3.70;;;3.50;;
22995;SDS011;11664;49.774;8.650;2022-07-30T11:28:36;5.70;;;5.40;;
22995;SDS011;11664;49.774;8.650;2022-07-30T11:31:03;6.25;;;3.92;;
22995;SDS011;11664;49.774;8.650;2022-07-30T11:33:29;4.03;;;3.83;;
22995;SDS011;11664;49.774;8.650;2022-07-30T11:36:06;4.00;;;3.70;;
22995;SDS011;11664;49.774;8.650;2022-07-30T11:38:51;3.15;;;2.95;;
22995;SDS011;11664;49.774;8.650;2022-07-30T11:41:17;5.53;;;2.55;;
22995;SDS011;11664;49.774;8.650;2022-07-30T11:43:43;2.30;;;2.20;;
22995;SDS011;11664;49.774;8.650;2022-07-30T11:46:13;3.10;;;3.00;;
22995;SDS011;11664;49.774;8.650;2022-07-30T11:48:53;3.15;;;2.90;;
22995;SDS011;11664;49.774;8.650;2022-07-30T11:51:20;3.63;;;3.42;;
22995;SDS011;11664;49.774;8.650;2022-07-30T11:53:59;3.92;;;2.92;;
22995;SDS011;11664;49.774;8.650;2022-07-30T11:56:25;2.42;;;2.33;;
22995;SDS011;11664;49.774;8.650;2022-07-30T11:58:51;3.10;;;2.90;;
22995;SDS011;11664;49.774;8.650;2022-07-30T12:01:25;3.40;;;3.20;;
22995;SDS011;11664;49.774;8.650;2022-07-30T12:03:51;3.05;;;2.85;;
22995;SDS011;11664;49.774;8.650;2022-07-30T12:06:17;3.63;;;3.42;;
22995;SDS011;11664;49.774;8.650;2022-07-30T12:08:48;4.20;;;3.90;;
22995;SDS011;11664;49.774;8.650;2022-07-30T12:11:14;6.32;;;6.03;;
22995;SDS011;11664;49.774;8.650;2022-07-30T12:13:40;5.60;;;5.30;;
22995;SDS011;11664;49.774;8.650;2022-07-30T12:16:10;3.90;;;3.70;;
22995;SDS011;11664;49.774;8.650;2022-07-30T12:18:36;3.25;;;3.15;;
22995;SDS011;11664;49.774;8.650;2022-07-30T12:21:06;2.97;;;2.88;;
22995;SDS011;11664;49.774;8.650;2022-07-30T12:23:33;2.85;;;2.75;;
22995;SDS011;11664;49.774;8.650;2022-07-30T12:25:59;2.47;;;2.38;;
22995;SDS011;11664;49.774;8.650;2022-07-30T12:28:29;3.08;;;2.97;;
22995;SDS011;11664;49.774;8.650;2022-07-30T12:30:56;3.00;;;2.90;;
22995;SDS011;11664;49.774;8.650;2022-07-30T12:33:22;2.50;;;2.40;;
22995;SDS011;11664;49.774;8.650;2022-07-30T12:35:49;2.78;;;2.67;;
22995;SDS011;11664;49.774;8.650;2022-07-30T12:38:16;3.10;;;3.00;;
22995;SDS011;11664;49.774;8.650;2022-07-30T12:46:19;3.60;;;3.40;;
22995;SDS011;11664;49.774;8.650;2022-07-30T12:48:49;4.05;;;3.85;;
22995;SDS011;11664;49.774;8.650;2022-07-30T12:51:15;3.03;;;2.92;;
22995;SDS011;11664;49.774;8.650;2022-07-30T12:53:41;3.85;;;3.65;;
22995;SDS011;11664;49.774;8.650;2022-07-30T12:56:11;3.15;;;3.05;;
22995;SDS011;11664;49.774;8.650;2022-07-30T12:58:37;2.85;;;2.70;;
22995;SDS011;11664;49.774;8.650;2022-07-30T13:01:05;2.88;;;2.78;;
22995;SDS011;11664;49.774;8.650;2022-07-30T13:03:31;3.38;;;3.17;;
22995;SDS011;11664;49.774;8.650;2022-07-30T13:06:09;3.70;;;3.50;;
22995;SDS011;11664;49.774;8.650;2022-07-30T13:08:46;3.38;;;3.28;;
22995;SDS011;11664;49.774;8.650;2022-07-30T13:11:12;3.75;;;3.58;;
22995;SDS011;11664;49.774;8.650;2022-07-30T13:13:38;4.30;;;3.33;;
22995;SDS011;11664;49.774;8.650;2022-07-30T13:16:04;3.65;;;3.45;;
22995;SDS011;11664;49.774;8.650;2022-07-30T13:18:31;4.22;;;4.00;;
22995;SDS011;11664;49.774;8.650;2022-07-30T13:20:58;3.53;;;3.35;;
22995;SDS011;11664;49.774;8.650;2022-07-30T13:23:24;3.92;;;3.38;;
22995;SDS011;11664;49.774;8.650;2022-07-30T13:25:51;2.85;;;2.72;;
22995;SDS011;11664;49.774;8.650;2022-07-30T13:28:17;3.08;;;2.97;;
22995;SDS011;11664;49.774;8.650;2022-07-30T13:30:44;3.03;;;2.90;;
22995;SDS011;11664;49.774;8.650;2022-07-30T13:33:10;3.58;;;3.40;;
22995;SDS011;11664;49.774;8.650;2022-07-30T13:35:36;3.25;;;3.05;;
22995;SDS011;11664;49.774;8.650;2022-07-30T13:38:02;2.80;;;2.70;;
22995;SDS011;11664;49.774;8.650;2022-07-30T13:40:30;4.05;;;3.85;;
22995;SDS011;11664;49.774;8.650;2022-07-30T13:42:59;3.05;;;2.95;;
22995;SDS011;11664;49.774;8.650;2022-07-30T13:45:25;2.63;;;2.53;;
22995;SDS011;11664;49.774;8.650;2022-07-30T13:47:52;2.72;;;2.63;;
22995;SDS011;11664;49.774;8.650;2022-07-30T13:50:18;3.05;;;2.95;;
22995;SDS011;11664;49.774;8.650;2022-07-30T13:52:44;4.50;;;4.30;;
22995;SDS011;11664;49.774;8.650;2022-07-30T13:55:10;3.10;;;2.97;;
22995;SDS011;11664;49.774;8.650;2022-07-30T13:57:36;2.55;;;2.45;;
22995;SDS011;11664;49.774;8.650;2022-07-30T14:00:03;2.97;;;2.88;;
22995;SDS011;11664;49.774;8.650;2022-07-30T14:02:29;2.60;;;2.50;;
22995;SDS011;11664;49.774;8.650;2022-07-30T14:04:55;2.35;;;2.25;;
22995;SDS011;11664;49.774;8.650;2022-07-30T14:07:22;2.38;;;2.28;;
22995;SDS011;11664;49.774;8.650;2022-07-30T14:09:48;4.22;;;2.90;;
22995;SDS011;11664;49.774;8.650;2022-07-30T14:12:14;3.00;;;2.80;;
22995;SDS011;11664;49.774;8.650;2022-07-30T14:14:40;2.92;;;2.72;;
22995;SDS011;11664;49.774;8.650;2022-07-30T14:17:06;2.88;;;2.67;;
22995;SDS011;11664;49.774;8.650;2022-07-30T14:19:32;2.53;;;2.42;;
22995;SDS011;11664;49.774;8.650;2022-07-30T14:21:58;3.10;;;2.90;;
22995;SDS011;11664;49.774;8.650;2022-07-30T14:24:24;2.67;;;2.58;;
22995;SDS011;11664;49.774;8.650;2022-07-30T14:26:50;2.13;;;2.03;;
22995;SDS011;11664;49.774;8.650;2022-07-30T14:29:16;2.92;;;2.72;;
22995;SDS011;11664;49.774;8.650;2022-07-30T14:31:42;2.63;;;2.53;;
22995;SDS011;11664;49.774;8.650;2022-07-30T14:34:08;2.47;;;2.38;;
22995;SDS011;11664;49.774;8.650;2022-07-30T14:36:34;4.03;;;3.83;;
22995;SDS011;11664;49.774;8.650;2022-07-30T14:39:01;3.25;;;3.05;;
22995;SDS011;11664;49.774;8.650;2022-07-30T14:41:28;3.60;;;3.45;;
22995;SDS011;11664;49.774;8.650;2022-07-30T14:43:54;3.45;;;3.25;;
22995;SDS011;11664;49.774;8.650;2022-07-30T14:46:21;4.45;;;4.25;;
22995;SDS011;11664;49.774;8.650;2022-07-30T14:48:47;4.65;;;4.45;;
22995;SDS011;11664;49.774;8.650;2022-07-30T14:51:14;3.05;;;2.95;;
22995;SDS011;11664;49.774;8.650;2022-07-30T14:53:40;4.15;;;3.95;;
22995;SDS011;11664;49.774;8.650;2022-07-30T14:56:06;3.88;;;3.58;;
22995;SDS011;11664;49.774;8.650;2022-07-30T14:58:32;2.90;;;2.80;;
22995;SDS011;11664;49.774;8.650;2022-07-30T15:00:58;3.00;;;2.90;;
22995;SDS011;11664;49.774;8.650;2022-07-30T15:03:24;2.65;;;2.55;;